Time;durP1;ratioP1;P1;durP2;ratioP2;P2;SDS_P1;SDS_P2;PMS_P1;PMS_P2;Temp;Humidity;BMP_temperature;BMP_pressure;BME280_temperature;BME280_humidity;BME280_pressure;Samples;Min_cycle;Max_cycle;Signal;HPM_P1;HPM_P2
2024/01/08 00:01:53;;;;;;;;;;;-2.50;99.90;;;;;;5099387;28;20252;-74
2024/01/08 00:04:19;;;;;;;;;;;-2.40;99.90;;;;;;5098623;28;19983;-74
2024/01/08 00:06:46;;;;;;;;;;;-2.40;99.90;;;;;;5104468;28;19946;-74
2024/01/08 00:09:13;;;;;;;;;;;-2.40;99.90;;;;;;5092177;28;19983;-74
2024/01/08 00:11:41;;;;;;;;;;;-2.40;99.90;;;;;;5086125;28;19960;-74
2024/01/08 00:14:07;;;;;;;;;;;-2.40;99.90;;;;;;5085523;28;19991;-74
2024/01/08 00:16:34;;;;;;;;;;;-2.40;99.90;;;;;;5086294;28;19927;-74
2024/01/08 00:19:01;;;;;;;;;;;-2.30;99.90;;;;;;5085956;28;19979;-74
2024/01/08 00:21:27;;;;;;;;;;;-2.30;99.90;;;;;;5085935;28;19920;-74
2024/01/08 00:23:54;;;;;;;;;;;-2.30;99.90;;;;;;5085082;28;19947;-74
2024/01/08 00:26:21;;;;;;;;;;;-2.30;99.90;;;;;;5085758;28;19943;-74
2024/01/08 00:28:49;;;;;;;;;;;-2.30;99.90;;;;;;5085720;28;19987;-74
2024/01/08 00:31:15;;;;;;;;;;;-2.40;99.90;;;;;;5086094;28;19954;-74
2024/01/08 00:33:42;;;;;;;;;;;-2.40;99.90;;;;;;5092558;28;19958;-74
2024/01/08 00:36:09;;;;;;;;;;;-2.40;99.90;;;;;;5092805;28;19955;-74
2024/01/08 00:38:35;;;;;;;;;;;-2.40;99.90;;;;;;5099825;28;19920;-74
2024/01/08 00:41:02;;;;;;;;;;;-2.40;99.90;;;;;;5103720;28;19948;-74
2024/01/08 00:43:28;;;;;;;;;;;-2.40;99.90;;;;;;5103634;28;20213;-74
2024/01/08 00:45:56;;;;;;;;;;;-2.50;99.90;;;;;;5087359;28;19921;-74
2024/01/08 00:48:23;;;;;;;;;;;-2.40;99.90;;;;;;5099114;28;19947;-74
2024/01/08 00:50:50;;;;;;;;;;;-2.40;99.90;;;;;;5095915;28;19988;-74
2024/01/08 00:53:16;;;;;;;;;;;-2.40;99.90;;;;;;5085836;28;19987;-74
2024/01/08 00:55:43;;;;;;;;;;;-2.40;99.90;;;;;;5084616;28;20219;-74
2024/01/08 00:58:09;;;;;;;;;;;-2.40;99.90;;;;;;5085258;28;19952;-74
2024/01/08 01:00:36;;;;;;;;;;;-2.40;99.90;;;;;;5085207;28;20257;-74
2024/01/08 01:03:04;;;;;;;;;;;-2.30;99.90;;;;;;5085782;28;19988;-74
2024/01/08 01:05:31;;;;;;;;;;;-2.30;99.90;;;;;;5084909;28;19955;-74
2024/01/08 01:07:57;;;;;;;;;;;-2.40;99.90;;;;;;5085383;28;19928;-74
2024/01/08 01:10:24;;;;;;;;;;;-2.50;99.90;;;;;;5096476;28;19926;-74
2024/01/08 01:12:50;;;;;;;;;;;-2.50;99.90;;;;;;5094750;28;19983;-74
2024/01/08 01:15:17;;;;;;;;;;;-2.50;99.90;;;;;;5084280;28;20245;-74
2024/01/08 01:17:44;;;;;;;;;;;-2.50;99.90;;;;;;5085483;28;19983;-74
2024/01/08 01:20:12;;;;;;;;;;;-2.50;99.90;;;;;;5084988;28;20117;-74
2024/01/08 01:22:39;;;;;;;;;;;-2.60;99.90;;;;;;5084518;28;19987;-74
2024/01/08 01:25:05;;;;;;;;;;;-2.50;99.90;;;;;;5102508;28;20179;-74
2024/01/08 01:27:31;;;;;;;;;;;-2.50;99.90;;;;;;5096934;28;19924;-74
2024/01/08 01:29:58;;;;;;;;;;;-2.50;99.90;;;;;;5086632;28;20240;-74
2024/01/08 01:32:24;;;;;;;;;;;-2.50;99.90;;;;;;5103307;28;19991;-74
2024/01/08 01:34:51;;;;;;;;;;;-2.50;99.90;;;;;;5101356;28;19979;-74
2024/01/08 01:37:19;;;;;;;;;;;-2.50;99.90;;;;;;5103105;28;19987;-74
2024/01/08 01:39:45;;;;;;;;;;;-2.50;99.90;;;;;;5102515;28;19955;-74
2024/01/08 01:42:12;;;;;;;;;;;-2.50;99.90;;;;;;5103332;28;19983;-74
2024/01/08 01:44:39;;;;;;;;;;;-2.50;99.90;;;;;;5093942;28;19955;-74
2024/01/08 01:47:06;;;;;;;;;;;-2.50;99.90;;;;;;5084729;28;20209;-74
2024/01/08 01:49:33;;;;;;;;;;;-2.50;99.90;;;;;;5084387;28;19962;-74
2024/01/08 01:51:59;;;;;;;;;;;-2.50;99.90;;;;;;5084875;28;20229;-74
2024/01/08 01:54:28;;;;;;;;;;;-2.50;99.90;;;;;;5083275;28;19959;-74
2024/01/08 01:56:57;;;;;;;;;;;-2.60;99.90;;;;;;5084737;28;19926;-74
2024/01/08 01:59:25;;;;;;;;;;;-2.50;99.90;;;;;;5084414;28;19920;-74
2024/01/08 02:01:51;;;;;;;;;;;-2.60;99.90;;;;;;5085058;28;19955;-74
2024/01/08 02:04:18;;;;;;;;;;;-2.60;99.90;;;;;;5095968;28;19920;-74
2024/01/08 02:06:45;;;;;;;;;;;-2.70;99.90;;;;;;5079253;28;19984;-74
2024/01/08 02:09:13;;;;;;;;;;;-2.70;99.90;;;;;;5084150;28;19963;-74
2024/01/08 02:11:41;;;;;;;;;;;-2.70;99.90;;;;;;5084214;28;20213;-74
2024/01/08 02:14:08;;;;;;;;;;;-2.70;99.90;;;;;;5102420;28;19948;-74
2024/01/08 02:16:35;;;;;;;;;;;-2.70;99.90;;;;;;5102645;28;19920;-74
2024/01/08 02:19:02;;;;;;;;;;;-2.70;99.90;;;;;;5102179;28;19926;-74
2024/01/08 02:21:28;;;;;;;;;;;-2.70;99.90;;;;;;5091906;28;19956;-74
2024/01/08 02:23:56;;;;;;;;;;;-2.70;99.90;;;;;;5084206;28;19921;-74
2024/01/08 02:26:23;;;;;;;;;;;-2.70;99.90;;;;;;5084392;28;19962;-74
2024/01/08 02:28:50;;;;;;;;;;;-2.70;99.90;;;;;;5084587;28;19921;-74
2024/01/08 02:31:16;;;;;;;;;;;-2.70;99.90;;;;;;5084402;28;19920;-74
2024/01/08 02:33:43;;;;;;;;;;;-2.80;99.90;;;;;;5077813;28;19980;-74
2024/01/08 02:36:09;;;;;;;;;;;-2.80;99.90;;;;;;5084399;28;20138;-74
2024/01/08 02:38:36;;;;;;;;;;;-2.80;99.90;;;;;;5090845;28;19983;-74
2024/01/08 02:41:04;;;;;;;;;;;-2.80;99.90;;;;;;5090865;28;19995;-74
2024/01/08 02:43:32;;;;;;;;;;;-2.90;99.90;;;;;;5083663;28;19920;-74
2024/01/08 02:45:59;;;;;;;;;;;-2.90;99.90;;;;;;5095412;28;19920;-74
2024/01/08 02:48:25;;;;;;;;;;;-2.90;99.90;;;;;;5105985;28;20188;-74
2024/01/08 02:50:52;;;;;;;;;;;-2.90;99.90;;;;;;5089834;28;19921;-74
2024/01/08 02:53:18;;;;;;;;;;;-2.90;99.90;;;;;;5087490;28;20272;-74
2024/01/08 02:55:45;;;;;;;;;;;-2.80;99.90;;;;;;5094495;28;19927;-74
2024/01/08 02:58:13;;;;;;;;;;;-2.90;99.90;;;;;;5105674;28;19919;-74
2024/01/08 03:00:40;;;;;;;;;;;-2.90;99.90;;;;;;5105625;28;19987;-74
2024/01/08 03:03:06;;;;;;;;;;;-2.90;99.90;;;;;;5105485;28;20125;-74
2024/01/08 03:05:33;;;;;;;;;;;-2.90;99.90;;;;;;5105420;28;19987;-74
2024/01/08 03:07:59;;;;;;;;;;;-2.90;99.90;;;;;;5105357;28;19995;-74
2024/01/08 03:10:26;;;;;;;;;;;-2.90;99.90;;;;;;5105952;28;19921;-74
2024/01/08 03:12:54;;;;;;;;;;;-3.00;99.90;;;;;;5103415;28;19995;-74
2024/01/08 03:15:25;;;;;;;;;;;-3.00;99.90;;;;;;5088099;28;19927;-74
2024/01/08 03:17:52;;;;;;;;;;;-2.90;99.90;;;;;;5087946;28;19966;-74
2024/01/08 03:20:22;;;;;;;;;;;-2.90;99.90;;;;;;5086530;28;19956;-75
2024/01/08 03:22:49;;;;;;;;;;;-3.00;99.90;;;;;;5087833;28;19920;-74
2024/01/08 03:25:16;;;;;;;;;;;-2.90;99.90;;;;;;5086564;28;19976;-73
2024/01/08 03:27:42;;;;;;;;;;;-2.90;99.90;;;;;;5087589;28;19947;-74
2024/01/08 03:30:09;;;;;;;;;;;-2.90;99.90;;;;;;5101748;28;19951;-74
2024/01/08 03:32:37;;;;;;;;;;;-2.90;99.90;;;;;;5101420;28;19983;-74
2024/01/08 03:35:04;;;;;;;;;;;-2.90;99.90;;;;;;5104093;28;20233;-74
2024/01/08 03:37:31;;;;;;;;;;;-2.90;99.90;;;;;;5104861;28;20086;-75
2024/01/08 03:39:58;;;;;;;;;;;-2.90;99.90;;;;;;5105057;28;19983;-74
2024/01/08 03:42:24;;;;;;;;;;;-2.90;99.90;;;;;;5084443;28;20117;-74
2024/01/08 03:44:51;;;;;;;;;;;-2.90;99.90;;;;;;5102172;28;20217;-73
2024/01/08 03:47:18;;;;;;;;;;;-2.90;99.90;;;;;;5101229;28;19987;-74
2024/01/08 03:49:45;;;;;;;;;;;-2.90;99.90;;;;;;5087220;28;19920;-74
2024/01/08 03:52:12;;;;;;;;;;;-2.90;99.90;;;;;;5086753;28;20384;-74
2024/01/08 03:54:39;;;;;;;;;;;-2.90;99.90;;;;;;5086054;28;19926;-74
2024/01/08 03:57:06;;;;;;;;;;;-2.90;99.90;;;;;;5085989;28;19921;-74
2024/01/08 03:59:32;;;;;;;;;;;-2.80;99.90;;;;;;5100165;28;20362;-74
2024/01/08 04:01:59;;;;;;;;;;;-2.90;99.90;;;;;;5104456;28;19992;-74
2024/01/08 04:04:25;;;;;;;;;;;-2.90;99.90;;;;;;5101457;28;20094;-74
2024/01/08 04:06:53;;;;;;;;;;;-2.80;99.90;;;;;;5086899;28;19927;-74
2024/01/08 04:09:20;;;;;;;;;;;-2.80;99.90;;;;;;5104315;28;19957;-74
2024/01/08 04:11:47;;;;;;;;;;;-2.70;99.90;;;;;;5104198;28;19920;-74
2024/01/08 04:14:13;;;;;;;;;;;-2.70;99.90;;;;;;5103520;28;19991;-74
2024/01/08 04:16:40;;;;;;;;;;;-2.80;99.90;;;;;;5090234;28;20178;-74
2024/01/08 04:19:07;;;;;;;;;;;-2.80;99.90;;;;;;5092613;28;19921;-74
2024/01/08 04:21:33;;;;;;;;;;;-2.80;99.90;;;;;;5093182;28;19958;-74
2024/01/08 04:24:01;;;;;;;;;;;-2.80;99.90;;;;;;5085669;28;20235;-74
2024/01/08 04:26:28;;;;;;;;;;;-2.80;99.90;;;;;;5091829;28;20118;-74
2024/01/08 04:28:55;;;;;;;;;;;-2.80;99.90;;;;;;5103525;28;19951;-74
2024/01/08 04:31:22;;;;;;;;;;;-2.80;99.90;;;;;;5099762;28;19920;-74
2024/01/08 04:33:49;;;;;;;;;;;-2.80;99.90;;;;;;5103220;28;19919;-74
2024/01/08 04:36:16;;;;;;;;;;;-2.80;99.90;;;;;;5103497;28;19962;-74
2024/01/08 04:38:44;;;;;;;;;;;-2.80;99.90;;;;;;5095628;28;19987;-74
2024/01/08 04:41:17;;;;;;;;;;;-2.80;99.90;;;;;;5103787;28;19927;-74
2024/01/08 04:43:44;;;;;;;;;;;-2.80;99.90;;;;;;5102381;28;19987;-73
2024/01/08 04:46:10;;;;;;;;;;;-2.80;99.90;;;;;;5077773;28;19962;-74
2024/01/08 04:48:37;;;;;;;;;;;-2.80;99.90;;;;;;5087715;28;20142;-74
2024/01/08 04:51:04;;;;;;;;;;;-2.80;99.90;;;;;;5085877;28;19992;-74
2024/01/08 04:53:33;;;;;;;;;;;-2.80;99.90;;;;;;5084649;28;19963;-74
2024/01/08 04:56:00;;;;;;;;;;;-2.80;99.90;;;;;;5086050;28;19952;-74
2024/01/08 04:58:28;;;;;;;;;;;-2.90;99.90;;;;;;5097982;28;20232;-73
2024/01/08 05:00:54;;;;;;;;;;;-2.80;99.90;;;;;;5096318;28;19958;-74
2024/01/08 05:03:21;;;;;;;;;;;-2.90;99.90;;;;;;5102998;28;19955;-74
2024/01/08 05:05:47;;;;;;;;;;;-2.90;99.90;;;;;;5104462;28;19982;-74
2024/01/08 05:08:14;;;;;;;;;;;-2.80;99.90;;;;;;5103666;28;20165;-74
2024/01/08 05:10:41;;;;;;;;;;;-2.80;99.90;;;;;;5103431;28;19956;-74
2024/01/08 05:13:07;;;;;;;;;;;-2.80;99.90;;;;;;5103240;28;20216;-74
2024/01/08 05:15:36;;;;;;;;;;;-2.80;99.90;;;;;;5102872;28;19920;-74
2024/01/08 05:18:02;;;;;;;;;;;-2.80;99.90;;;;;;5102703;28;19927;-74
2024/01/08 05:20:30;;;;;;;;;;;-2.80;99.90;;;;;;5103341;28;19962;-74
2024/01/08 05:22:57;;;;;;;;;;;-2.80;99.90;;;;;;5102891;28;19924;-74
2024/01/08 05:25:23;;;;;;;;;;;-2.80;99.90;;;;;;5097316;28;19984;-74
2024/01/08 05:27:50;;;;;;;;;;;-2.90;99.90;;;;;;5085713;28;19983;-74
2024/01/08 05:30:17;;;;;;;;;;;-2.90;99.90;;;;;;5084868;28;19920;-74
2024/01/08 05:32:45;;;;;;;;;;;-2.90;99.90;;;;;;5085262;28;20223;-74
2024/01/08 05:35:11;;;;;;;;;;;-2.90;99.90;;;;;;5084558;28;20186;-73
2024/01/08 05:37:38;;;;;;;;;;;-2.90;99.90;;;;;;5085043;28;19927;-73
2024/01/08 05:40:05;;;;;;;;;;;-2.90;99.90;;;;;;5102078;28;19955;-73
2024/01/08 05:42:32;;;;;;;;;;;-2.90;99.90;;;;;;5088643;28;19966;-74
2024/01/08 05:44:58;;;;;;;;;;;-2.90;99.90;;;;;;5092377;28;19926;-76
2024/01/08 05:47:25;;;;;;;;;;;-2.90;99.90;;;;;;5084616;28;19984;-73
2024/01/08 05:49:53;;;;;;;;;;;-3.00;99.90;;;;;;5085010;28;19951;-73
2024/01/08 05:52:20;;;;;;;;;;;-3.00;99.90;;;;;;5083685;28;19928;-75
2024/01/08 05:54:47;;;;;;;;;;;-3.00;99.90;;;;;;5083203;28;19920;-75
2024/01/08 05:57:14;;;;;;;;;;;-3.00;99.90;;;;;;5084547;28;19955;-73
2024/01/08 05:59:40;;;;;;;;;;;-3.00;99.90;;;;;;5066581;28;20000;-74
2024/01/08 06:02:07;;;;;;;;;;;-3.00;99.90;;;;;;5064860;28;20015;-74
2024/01/08 06:04:33;;;;;;;;;;;-3.00;99.90;;;;;;5061135;28;19964;-75
2024/01/08 06:07:01;;;;;;;;;;;-3.00;99.90;;;;;;5063603;28;19962;-75
2024/01/08 06:09:28;;;;;;;;;;;-3.00;99.90;;;;;;5061319;28;19955;-75
2024/01/08 06:11:55;;;;;;;;;;;-3.00;99.90;;;;;;5063397;28;20240;-74
2024/01/08 06:14:21;;;;;;;;;;;-3.00;99.90;;;;;;5060822;28;19920;-75
2024/01/08 06:16:48;;;;;;;;;;;-3.00;99.90;;;;;;5063588;28;19924;-75
2024/01/08 06:19:14;;;;;;;;;;;-3.00;99.90;;;;;;5061371;28;19935;-75
2024/01/08 06:21:41;;;;;;;;;;;-3.00;99.90;;;;;;5065181;28;19927;-74
2024/01/08 06:24:09;;;;;;;;;;;-3.00;99.90;;;;;;5066158;28;19920;-74
2024/01/08 06:26:36;;;;;;;;;;;-2.90;99.90;;;;;;5065283;28;19921;-74
2024/01/08 06:29:03;;;;;;;;;;;-2.90;99.90;;;;;;5068814;28;19959;-76
2024/01/08 06:31:29;;;;;;;;;;;-3.00;99.90;;;;;;5073330;28;19942;-74
2024/01/08 06:33:56;;;;;;;;;;;-3.00;99.90;;;;;;5078650;28;19920;-72
2024/01/08 06:36:23;;;;;;;;;;;-3.00;99.90;;;;;;5082089;28;19919;-74
2024/01/08 06:38:49;;;;;;;;;;;-3.00;99.90;;;;;;5085637;28;19927;-75
2024/01/08 06:41:17;;;;;;;;;;;-3.10;99.90;;;;;;5084401;28;19926;-76
2024/01/08 06:43:44;;;;;;;;;;;-3.20;99.90;;;;;;5081307;28;19928;-76
2024/01/08 06:46:10;;;;;;;;;;;-3.20;99.90;;;;;;5090118;28;19920;-75
2024/01/08 06:48:37;;;;;;;;;;;-3.10;99.90;;;;;;5094633;28;19948;-75
2024/01/08 06:51:04;;;;;;;;;;;-3.10;99.90;;;;;;5085356;28;19927;-74
2024/01/08 06:53:31;;;;;;;;;;;-3.20;99.90;;;;;;5075887;28;19959;-74
2024/01/08 06:55:57;;;;;;;;;;;-3.20;99.90;;;;;;5087960;28;19921;-74
2024/01/08 06:58:25;;;;;;;;;;;-3.20;99.90;;;;;;5087250;28;20170;-74
2024/01/08 07:00:52;;;;;;;;;;;-3.10;99.90;;;;;;5088475;28;19979;-74
2024/01/08 07:03:18;;;;;;;;;;;-3.10;99.90;;;;;;5087009;28;20011;-74
2024/01/08 07:05:45;;;;;;;;;;;-3.10;99.90;;;;;;5085410;28;19927;-74
2024/01/08 07:08:12;;;;;;;;;;;-3.10;99.90;;;;;;5087598;28;19927;-74
2024/01/08 07:10:38;;;;;;;;;;;-3.10;99.90;;;;;;5089707;28;19991;-74
2024/01/08 07:13:05;;;;;;;;;;;-3.10;99.90;;;;;;5089714;28;20114;-74
2024/01/08 07:15:43;;;;;;;;;;;-3.10;99.90;;;;;;5087098;28;19960;-74
2024/01/08 07:18:10;;;;;;;;;;;-3.20;99.90;;;;;;5085527;28;19920;-74
2024/01/08 07:20:37;;;;;;;;;;;-3.20;99.90;;;;;;5084116;28;20052;-74
2024/01/08 07:23:04;;;;;;;;;;;-3.10;99.90;;;;;;5086551;28;19929;-74
2024/01/08 07:25:31;;;;;;;;;;;-3.10;99.90;;;;;;5086083;28;19960;-74
2024/01/08 07:27:59;;;;;;;;;;;-3.10;99.90;;;;;;5084560;28;19921;-74
2024/01/08 07:30:26;;;;;;;;;;;-3.10;99.90;;;;;;5089677;28;19988;-74
2024/01/08 07:32:54;;;;;;;;;;;-3.10;99.90;;;;;;5086768;28;19956;-74
2024/01/08 07:35:21;;;;;;;;;;;-3.00;99.90;;;;;;5086769;28;19979;-74
2024/01/08 07:37:51;;;;;;;;;;;-3.10;99.90;;;;;;5082816;28;20100;-74
2024/01/08 07:40:17;;;;;;;;;;;-3.10;99.90;;;;;;5086154;28;20102;-74
2024/01/08 07:42:44;;;;;;;;;;;-3.10;99.90;;;;;;5089999;28;19920;-73
2024/01/08 07:45:11;;;;;;;;;;;-3.10;99.90;;;;;;5085887;28;20185;-75
2024/01/08 07:47:38;;;;;;;;;;;-3.10;99.90;;;;;;5084024;28;19924;-73
2024/01/08 07:50:08;;;;;;;;;;;-3.10;99.90;;;;;;5087473;28;19920;-74
2024/01/08 07:52:36;;;;;;;;;;;-3.10;99.90;;;;;;5079709;28;19959;-74
2024/01/08 07:55:02;;;;;;;;;;;-3.10;99.90;;;;;;5084155;28;19985;-74
2024/01/08 07:57:29;;;;;;;;;;;-3.10;99.90;;;;;;5091648;28;19983;-74
2024/01/08 07:59:56;;;;;;;;;;;-3.10;99.90;;;;;;5086489;28;19960;-74
2024/01/08 08:02:22;;;;;;;;;;;-3.10;99.90;;;;;;5086059;28;19928;-74
2024/01/08 08:04:50;;;;;;;;;;;-3.00;99.90;;;;;;5083288;28;20237;-74
2024/01/08 08:07:19;;;;;;;;;;;-3.00;99.90;;;;;;5086853;28;19951;-74
2024/01/08 08:09:45;;;;;;;;;;;-3.00;99.90;;;;;;5082759;28;19979;-74
2024/01/08 08:12:12;;;;;;;;;;;-2.90;99.90;;;;;;5088775;28;19983;-74
2024/01/08 08:14:38;;;;;;;;;;;-2.90;99.90;;;;;;5088305;28;19960;-74
2024/01/08 08:17:05;;;;;;;;;;;-2.90;99.90;;;;;;5086091;28;19976;-74
2024/01/08 08:19:32;;;;;;;;;;;-2.90;99.90;;;;;;5080573;28;19921;-74
2024/01/08 08:21:58;;;;;;;;;;;-2.90;99.90;;;;;;5083634;28;19999;-74
2024/01/08 08:24:26;;;;;;;;;;;-2.90;99.90;;;;;;5087956;28;19983;-74
2024/01/08 08:26:53;;;;;;;;;;;-2.80;99.90;;;;;;5084065;28;19948;-74
2024/01/08 08:29:20;;;;;;;;;;;-2.80;99.90;;;;;;5086652;28;20229;-75
2024/01/08 08:31:46;;;;;;;;;;;-2.90;99.90;;;;;;5086122;28;19921;-74
2024/01/08 08:34:13;;;;;;;;;;;-2.90;99.90;;;;;;5085588;28;19920;-74
2024/01/08 08:36:41;;;;;;;;;;;-2.80;99.90;;;;;;5085601;28;19921;-74
2024/01/08 08:39:08;;;;;;;;;;;-2.80;99.90;;;;;;5084572;28;20205;-74
2024/01/08 08:41:36;;;;;;;;;;;-2.80;99.90;;;;;;5082840;28;19983;-74
2024/01/08 08:44:03;;;;;;;;;;;-2.80;99.90;;;;;;5087944;28;19969;-74
2024/01/08 08:46:29;;;;;;;;;;;-2.70;99.90;;;;;;5088032;28;19927;-74
2024/01/08 08:48:56;;;;;;;;;;;-2.70;99.90;;;;;;5085636;28;20118;-74
2024/01/08 08:51:22;;;;;;;;;;;-2.70;99.90;;;;;;5087929;28;19956;-74
2024/01/08 08:53:49;;;;;;;;;;;-2.70;99.90;;;;;;5083869;28;19988;-74
2024/01/08 08:56:16;;;;;;;;;;;-2.70;99.90;;;;;;5092142;28;20285;-74
2024/01/08 08:58:44;;;;;;;;;;;-2.70;99.90;;;;;;5081655;28;19955;-74
2024/01/08 09:01:14;;;;;;;;;;;-2.70;99.90;;;;;;5085924;28;19971;-74
2024/01/08 09:03:40;;;;;;;;;;;-2.60;99.90;;;;;;5083754;28;19935;-74
2024/01/08 09:06:07;;;;;;;;;;;-2.60;99.90;;;;;;5083933;28;19921;-74
2024/01/08 09:08:34;;;;;;;;;;;-2.50;99.90;;;;;;5080537;28;19963;-74
2024/01/08 09:11:01;;;;;;;;;;;-2.50;99.90;;;;;;5093080;28;19952;-71
2024/01/08 09:13:27;;;;;;;;;;;-2.50;99.90;;;;;;5087495;28;20284;-75
2024/01/08 09:15:55;;;;;;;;;;;-2.40;99.90;;;;;;5090630;28;19921;-74
2024/01/08 09:18:22;;;;;;;;;;;-2.40;99.90;;;;;;5086647;28;19967;-74
2024/01/08 09:20:48;;;;;;;;;;;-2.30;99.90;;;;;;5087114;28;20177;-74
2024/01/08 09:23:15;;;;;;;;;;;-2.30;99.90;;;;;;5082493;28;20016;-74
2024/01/08 09:25:42;;;;;;;;;;;-2.40;99.90;;;;;;5084583;28;19951;-74
2024/01/08 09:28:08;;;;;;;;;;;-2.50;99.90;;;;;;5089212;28;19947;-74
2024/01/08 09:30:35;;;;;;;;;;;-2.60;99.90;;;;;;5074874;28;19927;-74
2024/01/08 09:33:03;;;;;;;;;;;-2.70;99.90;;;;;;5082157;28;20201;-74
2024/01/08 09:35:30;;;;;;;;;;;-2.80;99.90;;;;;;5087074;28;19928;-74
2024/01/08 09:37:56;;;;;;;;;;;-2.90;99.90;;;;;;5085180;28;19984;-74
2024/01/08 09:40:23;;;;;;;;;;;-2.90;99.90;;;;;;5084772;28;19987;-74
2024/01/08 09:42:53;;;;;;;;;;;-2.90;99.90;;;;;;5086327;28;19983;-74
2024/01/08 09:45:22;;;;;;;;;;;-3.00;99.90;;;;;;5084884;28;19999;-74
2024/01/08 09:47:49;;;;;;;;;;;-3.00;99.90;;;;;;5086822;28;19928;-74
2024/01/08 09:50:18;;;;;;;;;;;-2.90;99.90;;;;;;5084155;28;19955;-74
2024/01/08 09:52:45;;;;;;;;;;;-3.00;99.90;;;;;;5087413;28;20210;-74
2024/01/08 09:55:12;;;;;;;;;;;-3.00;99.90;;;;;;5084415;28;19958;-74
2024/01/08 09:57:39;;;;;;;;;;;-3.10;99.90;;;;;;5087157;28;20173;-74
2024/01/08 10:00:06;;;;;;;;;;;-3.10;99.90;;;;;;5087192;28;19920;-74
2024/01/08 10:02:33;;;;;;;;;;;-3.10;99.90;;;;;;5084258;28;20228;-74
2024/01/08 10:05:01;;;;;;;;;;;-3.10;99.90;;;;;;5089209;28;19928;-74
2024/01/08 10:07:33;;;;;;;;;;;-3.20;99.90;;;;;;5085173;28;19920;-74
2024/01/08 10:10:00;;;;;;;;;;;-3.10;99.90;;;;;;5087860;28;19998;-74
2024/01/08 10:12:27;;;;;;;;;;;-3.10;99.90;;;;;;5087282;28;19958;-74
2024/01/08 10:14:54;;;;;;;;;;;-3.10;99.90;;;;;;5087447;28;19952;-74
2024/01/08 10:17:21;;;;;;;;;;;-3.20;99.90;;;;;;5084258;28;19951;-74
2024/01/08 10:19:48;;;;;;;;;;;-3.20;99.90;;;;;;5086458;28;19921;-74
2024/01/08 10:22:15;;;;;;;;;;;-3.10;99.90;;;;;;5083884;28;19921;-74
2024/01/08 10:24:43;;;;;;;;;;;-3.10;99.90;;;;;;5081522;28;20209;-74
2024/01/08 10:27:10;;;;;;;;;;;-3.20;99.90;;;;;;5083938;28;19956;-74
2024/01/08 10:29:38;;;;;;;;;;;-3.20;99.90;;;;;;5089814;28;19988;-74
2024/01/08 10:32:05;;;;;;;;;;;-3.20;99.90;;;;;;5086241;28;19960;-74
2024/01/08 10:34:34;;;;;;;;;;;-3.10;99.90;;;;;;5078101;28;19952;-74
2024/01/08 10:37:00;;;;;;;;;;;-3.20;99.90;;;;;;5091648;28;19928;-74
2024/01/08 10:39:30;;;;;;;;;;;-3.20;99.90;;;;;;5091157;28;19979;-74
2024/01/08 10:41:58;;;;;;;;;;;-3.20;99.90;;;;;;5088677;28;20355;-74
2024/01/08 10:44:25;;;;;;;;;;;-3.20;99.90;;;;;;5084251;28;19920;-74
2024/01/08 10:46:54;;;;;;;;;;;-3.20;99.90;;;;;;5081178;28;19928;-74
2024/01/08 10:49:22;;;;;;;;;;;-3.20;99.90;;;;;;5080978;28;19939;-74
2024/01/08 10:51:49;;;;;;;;;;;-3.10;99.90;;;;;;5086964;28;19955;-76
2024/01/08 10:54:17;;;;;;;;;;;-3.10;99.90;;;;;;5085990;28;19927;-75
2024/01/08 10:56:45;;;;;;;;;;;-3.00;99.90;;;;;;5082757;28;19996;-75
2024/01/08 10:59:21;;;;;;;;;;;-2.90;99.90;;;;;;5082513;28;19921;-75
2024/01/08 11:01:48;;;;;;;;;;;-2.80;99.90;;;;;;5085165;28;20117;-76
2024/01/08 11:04:14;;;;;;;;;;;-2.90;99.90;;;;;;5085912;28;19992;-75
2024/01/08 11:06:43;;;;;;;;;;;-2.90;99.90;;;;;;5091134;28;19995;-75
2024/01/08 11:09:23;;;;;;;;;;;-3.00;99.90;;;;;;5090799;28;19921;-75
2024/01/08 11:11:50;;;;;;;;;;;-3.00;99.90;;;;;;5084683;28;19952;-74
2024/01/08 11:14:18;;;;;;;;;;;-3.10;99.90;;;;;;5085704;28;19931;-74
2024/01/08 11:16:44;;;;;;;;;;;-3.00;99.90;;;;;;5093504;28;19960;-74
2024/01/08 11:19:27;;;;;;;;;;;-3.00;99.90;;;;;;5086110;28;19952;-74
2024/01/08 11:21:55;;;;;;;;;;;-2.80;99.90;;;;;;5092310;28;19927;-74
2024/01/08 11:24:22;;;;;;;;;;;-2.80;99.90;;;;;;5083360;28;19986;-74
2024/01/08 11:26:50;;;;;;;;;;;-2.80;99.90;;;;;;5093899;28;19999;-74
2024/01/08 11:29:19;;;;;;;;;;;-2.80;99.90;;;;;;5085237;28;19952;-74
2024/01/08 11:32:03;;;;;;;;;;;-2.80;99.90;;;;;;5089713;28;19964;-74
2024/01/08 11:34:48;;;;;;;;;;;-2.80;99.90;;;;;;5093730;28;19920;-73
2024/01/08 11:37:24;;;;;;;;;;;-2.90;99.90;;;;;;5084012;28;19983;-75
2024/01/08 11:39:51;;;;;;;;;;;-2.90;99.90;;;;;;5089078;28;19916;-75
2024/01/08 11:42:18;;;;;;;;;;;-3.00;99.90;;;;;;5088249;28;20280;-75
2024/01/08 11:44:46;;;;;;;;;;;-3.00;99.90;;;;;;5089013;28;20378;-75
2024/01/08 11:47:13;;;;;;;;;;;-3.00;99.90;;;;;;5084846;28;20206;-75
2024/01/08 11:49:39;;;;;;;;;;;-2.90;99.90;;;;;;5078022;28;19924;-74
2024/01/08 11:52:07;;;;;;;;;;;-2.80;99.90;;;;;;5089068;28;20112;-75
2024/01/08 11:54:34;;;;;;;;;;;-2.70;99.90;;;;;;5084071;28;19948;-75
2024/01/08 11:57:01;;;;;;;;;;;-2.70;99.90;;;;;;5090533;28;19920;-75
2024/01/08 11:59:31;;;;;;;;;;;-2.80;99.90;;;;;;5085786;28;19920;-75
2024/01/08 12:02:09;;;;;;;;;;;-2.80;99.90;;;;;;5089404;28;19920;-74
2024/01/08 12:04:36;;;;;;;;;;;-2.80;99.90;;;;;;5075746;28;19928;-74
2024/01/08 12:07:02;;;;;;;;;;;-2.80;99.90;;;;;;5062861;28;19920;-73
2024/01/08 12:09:31;;;;;;;;;;;-2.80;99.90;;;;;;5062345;28;20257;-73
2024/01/08 12:12:04;;;;;;;;;;;-2.80;99.90;;;;;;5064489;28;19927;-75
2024/01/08 12:14:31;;;;;;;;;;;-2.80;99.90;;;;;;5062525;28;20210;-75
2024/01/08 12:16:58;;;;;;;;;;;-2.70;99.90;;;;;;5064307;28;19996;-75
2024/01/08 12:19:35;;;;;;;;;;;-2.80;99.90;;;;;;5063411;28;19995;-75
2024/01/08 12:22:01;;;;;;;;;;;-2.80;99.90;;;;;;5062886;28;19954;-76
2024/01/08 12:24:28;;;;;;;;;;;-2.70;99.90;;;;;;5061958;28;20447;-75
2024/01/08 12:27:00;;;;;;;;;;;-2.60;99.90;;;;;;5063649;28;19928;-75
2024/01/08 12:29:27;;;;;;;;;;;-2.50;99.90;;;;;;5063359;28;19952;-76
2024/01/08 12:31:56;;;;;;;;;;;-2.40;99.90;;;;;;5064393;28;19928;-75
2024/01/08 12:34:22;;;;;;;;;;;-2.40;99.90;;;;;;5069754;28;19928;-76
2024/01/08 12:36:50;;;;;;;;;;;-2.30;99.90;;;;;;5085116;28;19985;-75
2024/01/08 12:39:17;;;;;;;;;;;-2.40;99.90;;;;;;5082079;28;19959;-76
2024/01/08 12:41:44;;;;;;;;;;;-2.40;99.90;;;;;;5090014;28;20015;-74
2024/01/08 12:44:11;;;;;;;;;;;-2.40;99.90;;;;;;5085311;28;19987;-74
2024/01/08 12:46:38;;;;;;;;;;;-2.40;99.90;;;;;;5078785;28;19966;-75
2024/01/08 12:49:04;;;;;;;;;;;-2.30;99.90;;;;;;5079660;28;19992;-75
2024/01/08 12:51:31;;;;;;;;;;;-2.30;99.90;;;;;;5077694;28;20214;-76
2024/01/08 12:53:59;;;;;;;;;;;-2.30;99.90;;;;;;5084781;28;19983;-75
2024/01/08 12:56:26;;;;;;;;;;;-2.30;99.90;;;;;;5080531;28;20244;-75
2024/01/08 12:58:52;;;;;;;;;;;-2.30;99.90;;;;;;5085978;28;20003;-76
2024/01/08 13:01:19;;;;;;;;;;;-2.40;99.90;;;;;;5083075;28;19947;-76
2024/01/08 13:03:46;;;;;;;;;;;-2.40;99.90;;;;;;5078605;28;19921;-75
2024/01/08 13:06:13;;;;;;;;;;;-2.40;99.90;;;;;;5089962;28;19955;-76
2024/01/08 13:08:42;;;;;;;;;;;-2.40;99.90;;;;;;5069209;28;19928;-72
2024/01/08 13:11:10;;;;;;;;;;;-2.40;99.90;;;;;;5061848;28;19995;-75
2024/01/08 13:13:37;;;;;;;;;;;-2.40;99.90;;;;;;5061840;28;19924;-76
2024/01/08 13:16:04;;;;;;;;;;;-2.40;99.90;;;;;;5062576;28;19995;-75
2024/01/08 13:18:30;;;;;;;;;;;-2.40;99.90;;;;;;5063413;28;20313;-76
2024/01/08 13:20:57;;;;;;;;;;;-2.50;99.90;;;;;;5078694;28;19948;-76
2024/01/08 13:23:24;;;;;;;;;;;-2.50;99.90;;;;;;5078166;28;19980;-75
2024/01/08 13:25:52;;;;;;;;;;;-2.50;99.90;;;;;;5083479;28;20203;-75
2024/01/08 13:28:20;;;;;;;;;;;-2.40;99.90;;;;;;5073903;28;19956;-75
2024/01/08 13:30:46;;;;;;;;;;;-2.40;99.90;;;;;;5080012;28;19982;-76
2024/01/08 13:33:13;;;;;;;;;;;-2.40;99.90;;;;;;5087127;28;19979;-73
2024/01/08 13:35:41;;;;;;;;;;;-2.40;99.90;;;;;;5078099;28;19963;-76
2024/01/08 13:38:07;;;;;;;;;;;-2.40;99.90;;;;;;5084954;28;19920;-76
2024/01/08 13:40:34;;;;;;;;;;;-2.50;99.90;;;;;;5090313;28;20427;-75
2024/01/08 13:43:02;;;;;;;;;;;-2.60;99.90;;;;;;5088374;28;20000;-75
2024/01/08 13:45:30;;;;;;;;;;;-2.60;99.90;;;;;;5078821;28;19920;-77
2024/01/08 13:47:57;;;;;;;;;;;-2.60;99.90;;;;;;5086898;28;19921;-75
2024/01/08 13:50:23;;;;;;;;;;;-2.70;99.90;;;;;;5086190;28;19996;-75
2024/01/08 13:52:50;;;;;;;;;;;-2.70;99.90;;;;;;5085037;28;19927;-75
2024/01/08 13:55:17;;;;;;;;;;;-2.70;99.90;;;;;;5090338;28;20157;-75
2024/01/08 13:57:44;;;;;;;;;;;-2.80;99.90;;;;;;5081158;28;19958;-76
2024/01/08 14:00:11;;;;;;;;;;;-2.70;99.90;;;;;;5087041;28;20261;-76
2024/01/08 14:02:39;;;;;;;;;;;-2.70;99.90;;;;;;5079116;28;19975;-76
2024/01/08 14:05:06;;;;;;;;;;;-2.70;99.90;;;;;;5086473;28;19951;-76
2024/01/08 14:07:33;;;;;;;;;;;-2.70;99.90;;;;;;5070658;28;19997;-75
2024/01/08 14:09:59;;;;;;;;;;;-2.70;99.90;;;;;;5083035;28;19926;-75
2024/01/08 14:12:26;;;;;;;;;;;-2.70;99.90;;;;;;5075758;28;20248;-76
2024/01/08 14:14:53;;;;;;;;;;;-2.70;99.90;;;;;;5085546;28;19928;-76
2024/01/08 14:17:19;;;;;;;;;;;-2.70;99.90;;;;;;5083985;28;20499;-74